Time;durP1;ratioP1;P1;durP2;ratioP2;P2;SDS_P1;SDS_P2;PMS_P1;PMS_P2;Temp;Humidity;BMP_temperature;BMP_pressure;BME280_temperature;BME280_humidity;BME280_pressure;Samples;Min_cycle;Max_cycle;Signal;HPM_P1;HPM_P2
2022/11/24 00:01:35;;;;;;;11.20;2.90;;;10.80;99.90;;;;;;5004076;28;20522;-32
2022/11/24 00:04:10;;;;;;;15.83;2.83;;;10.80;99.90;;;;;;4991794;28;20241;-32
2022/11/24 00:06:39;;;;;;;10.30;2.90;;;10.90;99.90;;;;;;5003931;28;20201;-33
2022/11/24 00:09:07;;;;;;;14.27;3.10;;;10.90;99.90;;;;;;5006303;28;20202;-32
2022/11/24 00:11:35;;;;;;;11.03;3.03;;;10.90;99.90;;;;;;5014228;28;20193;-33
2022/11/24 00:14:06;;;;;;;14.07;2.60;;;10.90;99.90;;;;;;5012919;28;20331;-32
2022/11/24 00:16:37;;;;;;;14.43;2.87;;;10.80;99.90;;;;;;5015698;28;20202;-32
2022/11/24 00:19:08;;;;;;;14.90;3.47;;;10.90;99.90;;;;;;4993395;28;20194;-32
2022/11/24 00:21:39;;;;;;;10.27;2.80;;;10.90;99.90;;;;;;5004575;28;20214;-33
2022/11/24 00:24:06;;;;;;;15.97;3.17;;;10.90;99.90;;;;;;5007608;28;20198;-32
2022/11/24 00:26:39;;;;;;;16.83;3.83;;;10.90;99.90;;;;;;4993318;28;20672;-32
2022/11/24 00:29:06;;;;;;;14.03;2.70;;;10.90;99.90;;;;;;5009847;28;20735;-33
2022/11/24 00:31:37;;;;;;;11.90;3.00;;;10.90;99.90;;;;;;5014662;28;20229;-32
2022/11/24 00:34:09;;;;;;;16.60;3.47;;;10.90;99.90;;;;;;4992817;28;20234;-32
2022/11/24 00:36:40;;;;;;;13.67;2.70;;;10.90;99.90;;;;;;5002549;28;20715;-33
2022/11/24 00:39:12;;;;;;;15.27;2.93;;;10.90;99.90;;;;;;5010977;28;20209;-33
2022/11/24 00:41:42;;;;;;;11.57;3.20;;;10.90;99.90;;;;;;5017703;28;20288;-33
2022/11/24 00:44:09;;;;;;;13.03;3.07;;;10.90;99.90;;;;;;5027557;28;20268;-33
2022/11/24 00:46:36;;;;;;;18.57;3.37;;;10.90;99.90;;;;;;5015849;28;20300;-33
2022/11/24 00:49:08;;;;;;;15.20;3.50;;;11.00;99.90;;;;;;5023687;28;20241;-33
2022/11/24 00:51:38;;;;;;;11.87;2.93;;;10.90;99.90;;;;;;5008028;28;20206;-33
2022/11/24 00:54:05;;;;;;;14.90;2.90;;;10.90;99.90;;;;;;5018124;28;20469;-32
2022/11/24 00:56:38;;;;;;;14.67;3.33;;;10.90;99.90;;;;;;5003633;28;20304;-32
2022/11/24 00:59:05;;;;;;;11.27;2.67;;;10.90;99.90;;;;;;5027131;28;20201;-32
2022/11/24 01:01:35;;;;;;;18.23;3.60;;;10.90;99.90;;;;;;5014390;28;20268;-32
2022/11/24 01:04:04;;;;;;;15.37;3.70;;;10.90;99.90;;;;;;4992526;28;20226;-32
2022/11/24 01:06:37;;;;;;;14.47;3.93;;;10.90;99.90;;;;;;5000267;28;20649;-32
2022/11/24 01:09:04;;;;;;;15.10;3.70;;;10.90;99.90;;;;;;5012135;28;20282;-32
2022/11/24 01:14:24;;;;;;;16.40;3.17;;;10.90;99.90;;;;;;5012022;28;20301;-32
2022/11/24 01:16:54;;;;;;;12.47;3.80;;;10.90;99.90;;;;;;5014732;28;20197;-32
2022/11/24 01:19:24;;;;;;;16.13;3.63;;;10.90;99.90;;;;;;5031905;28;20255;-33
2022/11/24 01:21:53;;;;;;;10.53;3.10;;;10.90;99.90;;;;;;5014997;28;20252;-32
2022/11/24 01:24:21;;;;;;;17.90;3.63;;;10.90;99.90;;;;;;5022555;28;20225;-32
2022/11/24 01:26:48;;;;;;;16.13;3.60;;;10.90;99.90;;;;;;4994606;28;20205;-32
2022/11/24 01:29:15;;;;;;;18.50;4.17;;;10.90;99.90;;;;;;5004780;28;20621;-33
2022/11/24 01:31:47;;;;;;;14.23;3.50;;;11.00;99.90;;;;;;5010607;28;20898;-33
2022/11/24 01:34:14;;;;;;;17.73;4.03;;;11.00;99.90;;;;;;5028452;28;20193;-33
2022/11/24 01:36:41;;;;;;;16.23;4.83;;;11.00;99.90;;;;;;5014069;28;20251;-32
2022/11/24 01:39:14;;;;;;;16.43;3.70;;;11.00;99.90;;;;;;5008814;28;20198;-32
2022/11/24 01:41:43;;;;;;;18.10;3.70;;;11.00;99.90;;;;;;5023283;28;20684;-32
2022/11/24 01:44:27;;;;;;;14.73;3.40;;;11.00;99.90;;;;;;5009346;28;20229;-34
2022/11/24 01:47:19;;;;;;;14.73;3.60;;;11.00;99.90;;;;;;5018213;28;20714;-32
2022/11/24 01:49:52;;;;;;;16.83;4.03;;;11.00;99.90;;;;;;5028863;28;20217;-33
2022/11/24 01:52:27;;;;;;;19.77;3.80;;;11.00;99.90;;;;;;5027246;28;20292;-32
2022/11/24 01:55:02;;;;;;;18.90;3.83;;;11.00;99.90;;;;;;5022941;28;20312;-32
2022/11/24 01:57:35;;;;;;;20.93;4.10;;;11.00;99.90;;;;;;5004885;28;20718;-33
2022/11/24 02:00:08;;;;;;;19.37;4.47;;;11.00;99.90;;;;;;4991991;28;20205;-33
2022/11/24 02:02:38;;;;;;;16.83;3.70;;;11.10;99.90;;;;;;5007209;28;20206;-32
2022/11/24 02:05:11;;;;;;;20.60;4.17;;;11.10;99.90;;;;;;5016115;28;20229;-32
2022/11/24 02:07:43;;;;;;;15.57;3.80;;;11.10;99.90;;;;;;4992822;28;20296;-32
2022/11/24 02:10:14;;;;;;;19.97;4.00;;;11.10;99.90;;;;;;4994587;28;20677;-33
2022/11/24 02:12:45;;;;;;;21.73;4.03;;;11.10;99.90;;;;;;5014713;28;20866;-32
2022/11/24 02:15:17;;;;;;;18.57;4.07;;;11.10;99.90;;;;;;5002797;28;20222;-32
2022/11/24 02:17:44;;;;;;;22.00;4.93;;;11.10;99.90;;;;;;5015745;28;20304;-32
2022/11/24 02:20:13;;;;;;;18.37;4.30;;;11.10;99.90;;;;;;5006680;28;20213;-33
2022/11/24 02:22:55;;;;;;;19.30;3.70;;;11.20;99.90;;;;;;5005737;28;20803;-32
2022/11/24 02:25:27;;;;;;;16.90;4.03;;;11.20;99.90;;;;;;5000643;28;20755;-32
2022/11/24 02:27:58;;;;;;;20.07;4.77;;;11.20;99.90;;;;;;5008170;28;20228;-33
2022/11/24 02:30:30;;;;;;;15.03;3.97;;;11.20;99.90;;;;;;5023011;28;20205;-32
2022/11/24 02:32:58;;;;;;;17.20;4.67;;;11.20;99.90;;;;;;5026018;28;20525;-32
2022/11/24 02:35:29;;;;;;;23.40;4.43;;;11.20;99.90;;;;;;5011376;28;20299;-32
2022/11/24 02:37:56;;;;;;;21.63;4.13;;;11.20;99.90;;;;;;5007046;28;20299;-32
2022/11/24 02:40:29;;;;;;;21.17;4.13;;;11.20;99.90;;;;;;5009568;28;21446;-33
2022/11/24 02:43:06;;;;;;;14.47;4.17;;;11.20;99.90;;;;;;5027249;28;20204;-32
2022/11/24 02:45:33;;;;;;;21.70;4.10;;;11.20;99.90;;;;;;5013427;28;20248;-32
2022/11/24 02:48:01;;;;;;;12.60;3.90;;;11.20;99.90;;;;;;4995924;28;20680;-32
2022/11/24 02:50:30;;;;;;;19.97;4.03;;;11.20;99.90;;;;;;5004434;28;20664;-32
2022/11/24 02:52:59;;;;;;;22.10;5.10;;;11.30;99.90;;;;;;5008076;28;20201;-32
2022/11/24 02:55:27;;;;;;;20.97;4.50;;;11.30;99.90;;;;;;5005775;28;20643;-32
2022/11/24 02:58:01;;;;;;;22.20;4.73;;;11.30;99.90;;;;;;5007720;28;20225;-32
2022/11/24 03:00:28;;;;;;;18.97;4.20;;;11.30;99.90;;;;;;5002440;28;21176;-32
2022/11/24 03:02:57;;;;;;;14.70;3.77;;;11.30;99.90;;;;;;5025886;28;20244;-32
2022/11/24 03:05:26;;;;;;;21.77;4.60;;;11.30;99.90;;;;;;5000805;28;20222;-33
2022/11/24 03:07:56;;;;;;;17.87;4.10;;;11.30;99.90;;;;;;5007573;28;20225;-32
2022/11/24 03:10:23;;;;;;;18.93;3.90;;;11.30;99.90;;;;;;5007017;28;20213;-32
2022/11/24 03:12:53;;;;;;;23.10;4.70;;;11.30;99.90;;;;;;5027306;28;20236;-32
2022/11/24 03:15:20;;;;;;;23.70;4.30;;;11.30;99.90;;;;;;5009064;28;20202;-32
2022/11/24 03:17:48;;;;;;;15.57;3.67;;;11.30;99.90;;;;;;5027098;28;20193;-32
2022/11/24 03:20:16;;;;;;;20.00;4.43;;;11.30;99.90;;;;;;5025189;28;20311;-31
2022/11/24 03:22:43;;;;;;;20.87;4.47;;;11.40;99.90;;;;;;5006971;28;20438;-30
2022/11/24 03:25:19;;;;;;;17.50;4.07;;;11.40;99.90;;;;;;4998504;28;20630;-30
2022/11/24 03:27:50;;;;;;;21.00;4.17;;;11.40;99.90;;;;;;4987298;28;20267;-30
2022/11/24 03:30:21;;;;;;;19.63;4.33;;;11.40;99.90;;;;;;4990069;28;20245;-30
2022/11/24 03:32:52;;;;;;;20.90;3.70;;;11.40;99.90;;;;;;5025315;28;20288;-30
2022/11/24 03:35:24;;;;;;;17.27;3.80;;;11.40;99.90;;;;;;5015719;28;20211;-30
2022/11/24 03:37:56;;;;;;;16.17;4.30;;;11.40;99.90;;;;;;4995962;28;20268;-30
2022/11/24 03:40:23;;;;;;;15.73;3.70;;;11.40;99.90;;;;;;4991453;28;20209;-30
2022/11/24 03:42:53;;;;;;;17.20;3.90;;;11.40;99.90;;;;;;5026792;28;20228;-31
2022/11/24 03:45:20;;;;;;;18.53;4.00;;;11.40;99.90;;;;;;5010548;28;20588;-30
2022/11/24 03:48:13;;;;;;;16.40;3.90;;;11.40;99.90;;;;;;5026344;28;20315;-30
2022/11/24 03:50:50;;;;;;;18.67;3.80;;;11.40;99.90;;;;;;5021053;28;20692;-30
2022/11/24 03:53:22;;;;;;;12.83;3.23;;;11.40;99.90;;;;;;5006895;28;20684;-30
2022/11/24 03:55:55;;;;;;;15.13;3.73;;;11.40;99.90;;;;;;5005212;28;20280;-30
2022/11/24 03:58:23;;;;;;;15.17;3.80;;;11.40;99.90;;;;;;5006966;28;21167;-30
2022/11/24 04:00:53;;;;;;;10.57;3.10;;;11.30;99.90;;;;;;5006697;28;20272;-30
2022/11/24 04:03:23;;;;;;;15.53;3.97;;;11.40;99.90;;;;;;5027036;28;20267;-30
2022/11/24 04:05:53;;;;;;;14.27;3.03;;;11.40;99.90;;;;;;5013008;28;20276;-30
2022/11/24 04:08:20;;;;;;;15.90;3.40;;;11.40;99.90;;;;;;5026478;28;20203;-30
2022/11/24 04:10:53;;;;;;;11.37;3.10;;;11.40;99.90;;;;;;5025183;28;20221;-30
2022/11/24 04:13:23;;;;;;;8.87;3.00;;;11.40;99.90;;;;;;5026265;28;20243;-30
2022/11/24 04:15:53;;;;;;;7.87;2.20;;;11.40;99.90;;;;;;5012447;28;20213;-30
2022/11/24 04:18:23;;;;;;;11.33;2.10;;;11.40;99.90;;;;;;5009305;28;20996;-30
2022/11/24 04:20:51;;;;;;;9.73;2.10;;;11.30;99.90;;;;;;4997084;28;20205;-30
2022/11/24 04:23:18;;;;;;;11.73;2.30;;;11.30;99.90;;;;;;5006461;28;20639;-30
2022/11/24 04:25:48;;;;;;;13.33;2.63;;;11.30;99.90;;;;;;4994723;28;20713;-30
2022/11/24 04:28:15;;;;;;;8.37;2.20;;;11.30;99.90;;;;;;4987193;28;20301;-30
2022/11/24 04:30:43;;;;;;;9.47;2.13;;;11.30;99.90;;;;;;4996288;28;20582;-31
2022/11/24 04:33:11;;;;;;;7.33;1.80;;;11.20;99.90;;;;;;5026595;28;20200;-30
2022/11/24 04:35:38;;;;;;;7.80;1.50;;;11.20;99.90;;;;;;5015470;28;20665;-31
2022/11/24 04:38:08;;;;;;;10.87;1.80;;;11.20;99.90;;;;;;5004711;28;20312;-30
2022/11/24 04:40:35;;;;;;;4.90;1.40;;;11.10;99.90;;;;;;5007796;28;20209;-30
2022/11/24 04:43:05;;;;;;;4.53;1.00;;;11.10;99.90;;;;;;5012474;28;20247;-30
2022/11/24 04:45:32;;;;;;;5.43;1.13;;;11.10;99.90;;;;;;4993207;28;20378;-30
2022/11/24 04:47:59;;;;;;;6.83;1.30;;;11.10;99.90;;;;;;5006202;28;20229;-30
2022/11/24 04:50:31;;;;;;;4.03;1.03;;;11.00;99.90;;;;;;5003831;28;20583;-31
2022/11/24 04:53:02;;;;;;;6.03;1.00;;;11.00;99.90;;;;;;5017923;28;20347;-31
2022/11/24 04:55:37;;;;;;;3.13;1.00;;;11.00;99.90;;;;;;5018328;28;20216;-31
2022/11/24 04:58:09;;;;;;;6.03;1.10;;;10.90;99.90;;;;;;5006586;28;20213;-30
2022/11/24 05:00:37;;;;;;;2.87;0.80;;;10.90;99.90;;;;;;5029125;28;20239;-30
2022/11/24 05:03:06;;;;;;;5.83;1.83;;;10.90;99.90;;;;;;5014363;28;20299;-30
2022/11/24 05:05:36;;;;;;;3.43;0.97;;;10.80;99.90;;;;;;5019125;28;20307;-30
2022/11/24 05:08:06;;;;;;;2.43;0.93;;;10.80;99.90;;;;;;5008740;28;20773;-30
2022/11/24 05:10:37;;;;;;;3.87;0.80;;;10.80;99.90;;;;;;5026855;28;20205;-30
2022/11/24 05:13:08;;;;;;;5.47;0.90;;;10.80;99.90;;;;;;5017774;28;20308;-30
2022/11/24 05:15:37;;;;;;;5.43;1.30;;;10.80;99.90;;;;;;4997522;28;20292;-30
2022/11/24 05:18:12;;;;;;;4.23;0.73;;;10.80;99.90;;;;;;5014707;28;20221;-31
2022/11/24 05:20:43;;;;;;;5.93;0.90;;;10.80;99.90;;;;;;5011491;28;20277;-30
2022/11/24 05:23:11;;;;;;;3.77;0.87;;;10.80;99.90;;;;;;5028045;28;20623;-30
2022/11/24 05:25:38;;;;;;;4.67;0.97;;;10.80;99.90;;;;;;5013114;28;20234;-30
2022/11/24 05:28:17;;;;;;;1.43;0.53;;;10.70;99.90;;;;;;5017756;28;20568;-31
2022/11/24 05:30:49;;;;;;;3.53;0.77;;;10.70;99.90;;;;;;5019840;28;20224;-31
2022/11/24 05:33:22;;;;;;;2.67;0.60;;;10.60;99.90;;;;;;5020604;28;20750;-31
2022/11/24 05:35:49;;;;;;;1.67;0.50;;;10.60;99.90;;;;;;5009674;28;20256;-30
2022/11/24 05:38:21;;;;;;;3.57;0.80;;;10.60;99.90;;;;;;5001178;28;20210;-30
2022/11/24 05:40:48;;;;;;;3.03;0.80;;;10.60;99.90;;;;;;5008925;28;20209;-31
2022/11/24 05:43:16;;;;;;;4.10;0.67;;;10.60;99.90;;;;;;5008671;28;20206;-30
2022/11/24 05:45:44;;;;;;;5.17;1.03;;;10.60;99.90;;;;;;5008692;28;20221;-30
2022/11/24 05:48:13;;;;;;;3.47;0.80;;;10.60;99.90;;;;;;5008306;28;20406;-31
2022/11/24 05:50:41;;;;;;;3.70;1.00;;;10.50;99.90;;;;;;5008800;28;20205;-30
2022/11/24 05:53:13;;;;;;;4.43;0.73;;;10.50;99.90;;;;;;5008391;28;20198;-30
2022/11/24 05:55:40;;;;;;;3.63;0.93;;;10.50;99.90;;;;;;5006683;28;20202;-30
2022/11/24 05:58:10;;;;;;;5.10;1.00;;;10.50;99.90;;;;;;5008733;28;20556;-30
2022/11/24 06:00:42;;;;;;;4.23;0.90;;;10.40;99.90;;;;;;5008342;28;20660;-31
2022/11/24 06:03:13;;;;;;;6.43;1.30;;;10.40;99.90;;;;;;5008329;28;20675;-30
2022/11/24 06:05:45;;;;;;;3.97;1.10;;;10.40;99.90;;;;;;5008126;28;20228;-31
2022/11/24 06:08:13;;;;;;;5.00;1.30;;;10.40;99.90;;;;;;5008260;28;20194;-31
2022/11/24 06:10:40;;;;;;;4.33;1.23;;;10.40;99.90;;;;;;5022830;28;20312;-31
2022/11/24 06:13:10;;;;;;;5.50;1.33;;;10.40;99.90;;;;;;5008380;28;20209;-31
2022/11/24 06:15:40;;;;;;;5.27;1.60;;;10.40;99.90;;;;;;5008169;28;20210;-30
2022/11/24 06:18:07;;;;;;;8.00;1.90;;;10.40;99.90;;;;;;5008032;28;20779;-31
2022/11/24 06:20:34;;;;;;;8.53;2.27;;;10.40;99.90;;;;;;5008194;28;20210;-30
2022/11/24 06:23:02;;;;;;;7.87;1.93;;;10.30;99.90;;;;;;5006813;28;20742;-30
2022/11/24 06:25:29;;;;;;;9.00;2.20;;;10.40;99.90;;;;;;5007739;28;20742;-30
2022/11/24 06:28:05;;;;;;;6.60;2.23;;;10.30;99.90;;;;;;5007696;28;20205;-30
2022/11/24 06:30:32;;;;;;;6.77;1.90;;;10.30;99.90;;;;;;5006324;28;20774;-31
2022/11/24 06:33:00;;;;;;;7.43;2.03;;;10.30;99.90;;;;;;5007832;28;20284;-30
2022/11/24 06:35:27;;;;;;;13.07;2.90;;;10.30;99.90;;;;;;5008039;28;20260;-30
2022/11/24 06:37:54;;;;;;;10.00;2.50;;;10.30;99.90;;;;;;5007729;28;20205;-31
2022/11/24 06:40:21;;;;;;;6.40;1.80;;;10.20;99.90;;;;;;5008069;28;20525;-31
2022/11/24 06:42:52;;;;;;;8.90;2.77;;;10.20;99.90;;;;;;5007577;28;20237;-30
2022/11/24 06:45:19;;;;;;;10.60;2.20;;;10.20;99.90;;;;;;5007752;28;20201;-30
2022/11/24 06:47:46;;;;;;;7.57;1.93;;;10.30;99.90;;;;;;5007399;28;20799;-31
2022/11/24 06:50:15;;;;;;;13.63;2.37;;;10.30;99.90;;;;;;5007947;28;20205;-30
2022/11/24 06:52:47;;;;;;;11.03;1.90;;;10.20;99.90;;;;;;5007308;28;20242;-30
2022/11/24 06:55:14;;;;;;;7.77;1.97;;;10.20;99.90;;;;;;5007215;28;20698;-31
2022/11/24 06:57:42;;;;;;;9.77;2.40;;;10.20;99.90;;;;;;5007380;28;20217;-31
2022/11/24 07:00:09;;;;;;;6.50;1.93;;;10.20;99.90;;;;;;5007507;28;20347;-31
2022/11/24 07:02:37;;;;;;;10.47;2.30;;;10.20;99.90;;;;;;5006549;28;20209;-31
2022/11/24 07:05:11;;;;;;;10.43;2.37;;;10.20;99.90;;;;;;5005711;28;20682;-30
2022/11/24 07:07:41;;;;;;;7.37;2.10;;;10.20;99.90;;;;;;5007168;28;20696;-30
2022/11/24 07:10:10;;;;;;;11.37;2.13;;;10.20;99.90;;;;;;5007122;28;20200;-30
2022/11/24 07:12:40;;;;;;;6.70;2.00;;;10.20;99.90;;;;;;5006889;28;20197;-31
2022/11/24 07:15:09;;;;;;;9.93;2.80;;;10.20;99.90;;;;;;5007698;28;20202;-31
2022/11/24 07:17:39;;;;;;;10.87;2.40;;;10.20;99.90;;;;;;5021779;28;20202;-31
2022/11/24 07:20:08;;;;;;;8.83;2.50;;;10.10;99.90;;;;;;5007025;28;20297;-31
2022/11/24 07:22:35;;;;;;;9.07;2.10;;;10.10;99.90;;;;;;5005034;28;20341;-31
2022/11/24 07:25:06;;;;;;;11.03;2.43;;;10.10;99.90;;;;;;5007457;28;20254;-31
2022/11/24 07:27:33;;;;;;;10.17;2.50;;;10.20;99.90;;;;;;5007313;28;20308;-31
2022/11/24 07:30:05;;;;;;;8.43;1.70;;;10.20;99.90;;;;;;5005852;28;20201;-31
2022/11/24 07:32:32;;;;;;;8.23;1.83;;;10.20;99.90;;;;;;5006971;28;20205;-31
2022/11/24 07:35:00;;;;;;;10.23;2.20;;;10.10;99.90;;;;;;5007809;28;20279;-31
2022/11/24 07:37:27;;;;;;;10.67;2.03;;;10.10;99.90;;;;;;5006813;28;20644;-31
2022/11/24 07:39:58;;;;;;;10.90;2.20;;;10.20;99.90;;;;;;5005387;28;20216;-30
2022/11/24 07:42:27;;;;;;;10.10;2.03;;;10.10;99.90;;;;;;5004853;28;20217;-31
2022/11/24 07:44:54;;;;;;;9.83;2.77;;;10.10;99.90;;;;;;5006469;28;20688;-31
2022/11/24 07:47:26;;;;;;;10.77;2.33;;;10.10;99.90;;;;;;5006703;28;20222;-31
2022/11/24 07:49:56;;;;;;;7.33;2.07;;;10.10;99.90;;;;;;5006548;28;20287;-31
2022/11/24 07:52:25;;;;;;;7.07;1.80;;;10.10;99.90;;;;;;5006430;28;20208;-31
2022/11/24 07:54:52;;;;;;;6.90;1.70;;;10.10;99.90;;;;;;5006901;28;20201;-31
2022/11/24 07:57:19;;;;;;;8.90;2.00;;;10.10;99.90;;;;;;5006566;28;20241;-31
2022/11/24 07:59:49;;;;;;;10.17;1.73;;;10.10;99.90;;;;;;5005234;28;20198;-30
2022/11/24 08:02:16;;;;;;;9.20;1.87;;;10.10;99.90;;;;;;5006659;28;20240;-30
2022/11/24 08:04:47;;;;;;;8.67;2.10;;;10.10;99.90;;;;;;5021042;28;20217;-31
2022/11/24 08:07:16;;;;;;;7.27;1.70;;;10.10;99.90;;;;;;5006198;28;21002;-31
2022/11/24 08:09:51;;;;;;;7.53;1.70;;;10.10;99.90;;;;;;5006880;28;20724;-30
2022/11/24 08:12:20;;;;;;;6.30;1.90;;;10.10;99.90;;;;;;5005050;28;20240;-30
2022/11/24 08:14:50;;;;;;;11.27;2.23;;;10.10;99.90;;;;;;5005010;28;20213;-30
2022/11/24 08:17:17;;;;;;;9.23;1.97;;;10.20;99.90;;;;;;5006554;28;20228;-31
2022/11/24 08:19:44;;;;;;;8.30;1.83;;;10.20;99.90;;;;;;5006934;28;20680;-31
2022/11/24 08:22:12;;;;;;;8.30;1.87;;;10.20;99.90;;;;;;5006502;28;20213;-30
2022/11/24 08:24:45;;;;;;;9.27;2.67;;;10.20;99.90;;;;;;5006837;28;20273;-30
2022/11/24 08:27:21;;;;;;;11.07;2.47;;;10.20;99.90;;;;;;5006719;28;20272;-30
2022/11/24 08:29:50;;;;;;;8.40;2.13;;;10.30;99.90;;;;;;5006463;28;20190;-31
2022/11/24 08:32:17;;;;;;;8.33;1.83;;;10.30;99.90;;;;;;5007402;28;20209;-30
2022/11/24 08:34:51;;;;;;;8.90;2.33;;;10.30;99.90;;;;;;4993222;28;20216;-31
2022/11/24 08:37:29;;;;;;;9.03;1.83;;;10.30;99.90;;;;;;5010585;28;20296;-31
2022/11/24 08:39:59;;;;;;;8.20;1.80;;;10.30;99.90;;;;;;5010139;28;20220;-30
2022/11/24 08:42:27;;;;;;;8.10;2.23;;;10.30;99.90;;;;;;5010401;28;20202;-30
2022/11/24 08:44:57;;;;;;;5.93;1.97;;;10.30;99.90;;;;;;5010713;28;20220;-31
2022/11/24 08:47:28;;;;;;;7.47;2.20;;;10.30;99.90;;;;;;5009951;28;20225;-33
2022/11/24 08:49:58;;;;;;;9.83;2.17;;;10.30;99.90;;;;;;5010293;28;20296;-32
2022/11/24 08:52:25;;;;;;;11.27;2.20;;;10.40;99.90;;;;;;5009961;28;20630;-33
2022/11/24 08:54:55;;;;;;;9.93;2.10;;;10.40;99.90;;;;;;5009559;28;20574;-32
2022/11/24 08:57:27;;;;;;;8.93;2.03;;;10.40;99.90;;;;;;5009675;28;20839;-32
2022/11/24 08:59:55;;;;;;;9.87;2.00;;;10.40;99.90;;;;;;5009344;28;20205;-32
2022/11/24 09:02:22;;;;;;;12.83;3.37;;;10.40;99.90;;;;;;5009702;28;20597;-32
2022/11/24 09:04:54;;;;;;;8.77;1.90;;;10.50;99.90;;;;;;5009205;28;20225;-32
2022/11/24 09:07:23;;;;;;;7.90;2.30;;;10.50;99.90;;;;;;5009043;28;20650;-32
2022/11/24 09:09:51;;;;;;;7.73;1.60;;;10.50;99.90;;;;;;5009458;28;20392;-32
2022/11/24 09:12:21;;;;;;;9.07;2.03;;;10.60;99.90;;;;;;5009158;28;20206;-32
2022/11/24 09:14:48;;;;;;;8.10;1.93;;;10.60;99.90;;;;;;5007715;28;20300;-32
2022/11/24 09:17:15;;;;;;;11.57;2.50;;;10.60;99.90;;;;;;5007906;28;20210;-32
2022/11/24 09:19:45;;;;;;;8.37;2.00;;;10.60;99.90;;;;;;5009514;28;20209;-33
2022/11/24 09:22:15;;;;;;;7.10;2.00;;;10.60;99.90;;;;;;5007903;28;20218;-33
2022/11/24 09:24:44;;;;;;;7.67;2.27;;;10.70;99.90;;;;;;5009608;28;20275;-32
2022/11/24 09:27:16;;;;;;;11.10;2.30;;;10.70;99.90;;;;;;5007768;28;20649;-32
2022/11/24 09:29:43;;;;;;;7.30;2.13;;;10.70;99.90;;;;;;5009393;28;20352;-33
2022/11/24 09:32:10;;;;;;;12.27;2.20;;;10.80;99.90;;;;;;5009201;28;20260;-33
2022/11/24 09:34:42;;;;;;;7.50;2.00;;;10.80;99.90;;;;;;5009804;28;20202;-33
2022/11/24 09:37:14;;;;;;;8.87;2.27;;;10.90;99.90;;;;;;5009162;28;20252;-32
2022/11/24 09:39:41;;;;;;;11.97;2.10;;;10.90;99.90;;;;;;5008806;28;20312;-32
2022/11/24 09:42:50;;;;;;;11.37;2.33;;;10.90;99.90;;;;;;5009105;28;20263;-32
2022/11/24 09:45:25;;;;;;;12.07;3.00;;;11.00;99.90;;;;;;4999703;28;20240;-33
2022/11/24 09:48:30;;;;;;;12.43;2.67;;;11.00;99.90;;;;;;5009079;28;20237;-32
2022/11/24 09:51:00;;;;;;;11.47;2.10;;;11.00;99.90;;;;;;5008333;28;20743;-32
2022/11/24 09:53:35;;;;;;;9.20;2.40;;;11.00;99.90;;;;;;5008816;28;20267;-32
2022/11/24 09:56:15;;;;;;;8.97;2.20;;;11.10;99.90;;;;;;5023700;28;20201;-33
2022/11/24 09:58:58;;;;;;;10.93;2.53;;;11.10;99.90;;;;;;5008955;28;20758;-33
2022/11/24 10:01:36;;;;;;;7.67;2.40;;;11.10;99.90;;;;;;5006899;28;20584;-32
2022/11/24 10:04:14;;;;;;;10.27;2.40;;;11.20;99.90;;;;;;5006860;28;20209;-32
2022/11/24 10:07:13;;;;;;;12.20;2.60;;;11.30;99.90;;;;;;5008575;28;20610;-32
2022/11/24 10:10:11;;;;;;;10.10;2.20;;;11.30;99.90;;;;;;5008319;28;20194;-32
2022/11/24 10:12:56;;;;;;;12.80;2.63;;;11.30;99.90;;;;;;5007167;28;20216;-32
2022/11/24 10:16:18;;;;;;;8.83;2.30;;;11.30;99.90;;;;;;5008821;28;20316;-32
2022/11/24 10:19:11;;;;;;;12.60;2.50;;;11.40;99.90;;;;;;4975522;28;20229;-33
2022/11/24 10:21:53;;;;;;;7.53;1.93;;;11.40;99.90;;;;;;5008108;28;20229;-33
2022/11/24 10:24:38;;;;;;;9.53;2.23;;;11.50;99.90;;;;;;5007945;28;20293;-32
2022/11/24 10:27:24;;;;;;;10.87;2.57;;;11.50;99.90;;;;;;5008154;28;20249;-33
2022/11/24 10:29:52;;;;;;;13.80;2.47;;;11.50;99.90;;;;;;5023103;28;20267;-32
2022/11/24 10:32:30;;;;;;;11.47;2.17;;;11.50;99.90;;;;;;5008305;28;20256;-32
2022/11/24 10:35:25;;;;;;;10.13;2.87;;;11.60;99.90;;;;;;5008008;28;20217;-32
2022/11/24 10:38:06;;;;;;;14.20;3.00;;;11.60;99.90;;;;;;5007822;28;20672;-32
2022/11/24 10:40:40;;;;;;;13.03;2.80;;;11.70;99.90;;;;;;5007930;28;20205;-32
2022/11/24 10:43:28;;;;;;;8.87;2.13;;;11.70;99.90;;;;;;5007996;28;20603;-33
2022/11/24 10:46:09;;;;;;;10.00;2.20;;;11.70;99.90;;;;;;5006580;28;20220;-32
2022/11/24 10:48:44;;;;;;;12.57;2.80;;;11.80;99.90;;;;;;5007687;28;20233;-32
2022/11/24 10:51:23;;;;;;;8.80;2.23;;;11.80;99.90;;;;;;5008259;28;20615;-32
2022/11/24 10:54:04;;;;;;;12.23;2.43;;;11.90;99.90;;;;;;5007921;28;20292;-33
2022/11/24 10:56:41;;;;;;;13.60;2.80;;;11.90;99.90;;;;;;5007265;28;20684;-32
2022/11/24 10:59:31;;;;;;;13.13;2.63;;;11.90;99.90;;;;;;5022040;28;20201;-33
2022/11/24 11:01:59;;;;;;;9.57;2.63;;;12.00;99.90;;;;;;5005966;28;20874;-32
2022/11/24 11:04:33;;;;;;;11.17;2.50;;;12.10;99.90;;;;;;5007346;28;20197;-32
2022/11/24 11:07:20;;;;;;;11.57;2.43;;;12.10;99.90;;;;;;5007706;28;20295;-32
2022/11/24 11:09:48;;;;;;;11.40;2.43;;;12.10;99.90;;;;;;5006012;28;20591;-32
2022/11/24 11:12:28;;;;;;;10.70;2.33;;;12.10;99.90;;;;;;5005643;28;20202;-32
2022/11/24 11:15:22;;;;;;;11.57;2.47;;;12.20;99.90;;;;;;5007202;28;20642;-32
2022/11/24 11:17:51;;;;;;;10.37;2.37;;;12.20;99.90;;;;;;5005293;28;20264;-32
2022/11/24 11:20:26;;;;;;;9.40;2.23;;;12.20;99.90;;;;;;5007027;28;20766;-32
2022/11/24 11:22:54;;;;;;;13.07;2.90;;;12.30;99.90;;;;;;5006593;28;20351;-32
2022/11/24 11:25:36;;;;;;;11.50;2.63;;;12.30;99.90;;;;;;5006662;28;20248;-32
2022/11/24 11:28:30;;;;;;;6.70;2.00;;;12.30;99.90;;;;;;5006712;28;20297;-33
2022/11/24 11:31:04;;;;;;;11.53;2.77;;;12.30;99.90;;;;;;5005640;28;20618;-33
2022/11/24 11:34:05;;;;;;;11.47;3.10;;;12.30;99.90;;;;;;5006486;28;20202;-32
2022/11/24 11:36:54;;;;;;;11.93;2.87;;;12.40;99.90;;;;;;5006453;28;20689;-32
2022/11/24 11:39:32;;;;;;;13.87;2.97;;;12.40;99.90;;;;;;5006447;28;20208;-32
2022/11/24 11:42:11;;;;;;;9.37;2.57;;;12.40;99.90;;;;;;5006463;28;20554;-33
2022/11/24 11:45:04;;;;;;;15.23;3.20;;;12.40;99.90;;;;;;5006316;28;20201;-32
2022/11/24 11:47:40;;;;;;;12.30;2.60;;;12.50;99.90;;;;;;5006195;28;20700;-32
2022/11/24 11:50:16;;;;;;;10.77;2.50;;;12.50;99.90;;;;;;5005848;28;20271;-33
2022/11/24 11:53:04;;;;;;;13.37;3.07;;;12.60;99.90;;;;;;5006021;28;20573;-32
2022/11/24 11:55:47;;;;;;;11.97;3.10;;;12.60;99.90;;;;;;5006578;28;20675;-32
2022/11/24 11:58:36;;;;;;;14.87;2.87;;;12.60;99.90;;;;;;4989188;28;20924;-32
2022/11/24 12:01:40;;;;;;;17.37;2.90;;;12.60;99.90;;;;;;5005936;28;20675;-32
2022/11/24 12:04:35;;;;;;;13.13;2.60;;;12.60;99.90;;;;;;4997530;28;20248;-32
2022/11/24 12:07:18;;;;;;;11.60;3.00;;;12.70;99.90;;;;;;5005588;28;20258;-32
2022/11/24 12:10:09;;;;;;;10.67;2.47;;;12.70;99.90;;;;;;5006556;28;20198;-32
2022/11/24 12:13:07;;;;;;;13.80;2.83;;;12.70;99.90;;;;;;5005850;28;20328;-32
2022/11/24 12:15:52;;;;;;;14.40;2.90;;;12.80;99.90;;;;;;5004683;28;20298;-32
2022/11/24 12:18:49;;;;;;;14.47;2.70;;;12.80;99.90;;;;;;5006065;28;20208;-32
2022/11/24 12:21:32;;;;;;;14.93;2.70;;;12.80;99.90;;;;;;5005947;28;20205;-32
2022/11/24 12:24:30;;;;;;;16.07;3.50;;;12.90;99.90;;;;;;5005932;28;20321;-33
2022/11/24 12:27:32;;;;;;;17.60;3.77;;;12.90;99.90;;;;;;5005884;28;20225;-32
2022/11/24 12:30:20;;;;;;;14.60;3.10;;;12.90;99.90;;;;;;5004423;28;20245;-32
2022/11/24 12:33:11;;;;;;;11.80;3.17;;;12.90;99.90;;;;;;5005919;28;20229;-33
2022/11/24 12:35:50;;;;;;;11.30;2.70;;;12.90;99.90;;;;;;5005946;28;20301;-32
2022/11/24 12:38:29;;;;;;;14.67;2.60;;;12.90;99.90;;;;;;5004147;28;20229;-32
2022/11/24 12:41:14;;;;;;;13.67;3.17;;;12.90;99.90;;;;;;5005839;28;20205;-33
2022/11/24 12:44:12;;;;;;;12.37;2.80;;;12.90;99.90;;;;;;5005692;28;20214;-32
2022/11/24 12:47:16;;;;;;;11.80;2.40;;;12.90;99.90;;;;;;5005793;28;20643;-32
2022/11/24 12:50:07;;;;;;;12.33;2.83;;;13.00;99.90;;;;;;5005589;28;20228;-33
2022/11/24 12:52:46;;;;;;;12.10;2.87;;;12.90;99.90;;;;;;5005783;28;20771;-37
2022/11/24 12:55:18;;;;;;;11.13;2.53;;;13.00;99.90;;;;;;5006121;28;20196;-32
2022/11/24 12:58:10;;;;;;;14.20;3.30;;;13.00;99.90;;;;;;5005690;28;20304;-32
2022/11/24 13:00:52;;;;;;;10.83;2.60;;;13.00;99.90;;;;;;5003964;28;20200;-33
2022/11/24 13:04:03;;;;;;;11.70;2.70;;;13.00;99.90;;;;;;5006130;28;20214;-32
2022/11/24 13:06:51;;;;;;;14.57;2.50;;;13.10;99.90;;;;;;5020175;28;20217;-32
2022/11/24 13:09:21;;;;;;;10.97;2.80;;;13.10;99.90;;;;;;5005679;28;20233;-32
2022/11/24 13:11:51;;;;;;;10.83;3.20;;;13.10;99.90;;;;;;5005673;28;20615;-32
2022/11/24 13:14:22;;;;;;;15.47;2.80;;;13.10;99.90;;;;;;5005564;28;20617;-32
2022/11/24 13:16:53;;;;;;;12.70;3.20;;;13.10;99.90;;;;;;5005390;28;20626;-32